Time;durP1;ratioP1;P1;durP2;ratioP2;P2;SDS_P1;SDS_P2;PMS_P1;PMS_P2;Temp;Humidity;BMP_temperature;BMP_pressure;BME280_temperature;BME280_humidity;BME280_pressure;Samples;Min_cycle;Max_cycle;Signal;HPM_P1;HPM_P2
2021/05/20 00:57:33;;;;;;;;;;;;;;;;;;5099040;27;19912;-46
2021/05/20 00:59:59;;;;;;;;;;;;;;;;;;5078733;28;19961;-46
2021/05/20 01:02:25;;;;;;;;;;;;;;;;;;5091307;28;19929;-46
2021/05/20 01:04:51;;;;;;;;;;;;;;;;;;5079391;28;19916;-46
2021/05/20 01:07:16;;;;;;;;;;;;;;;;;;5091295;28;19908;-46
2021/05/20 01:09:42;;;;;;;;;;;;;;;;;;5080288;28;19916;-45
2021/05/20 01:12:08;;;;;;;;;;;;;;;;;;5093083;28;19916;-46
2021/05/20 01:14:34;;;;;;;;;;;;;;;;;;5081293;28;19915;-45
2021/05/20 01:17:00;;;;;;;;;;;;;;;;;;5091664;28;19963;-46
2021/05/20 01:19:26;;;;;;;;;;;;;;;;;;5078798;28;20280;-46
2021/05/20 01:21:52;;;;;;;;;;;;;;;;;;5092065;28;19986;-46
2021/05/20 01:24:18;;;;;;;;;;;;;;;;;;5082156;28;20475;-46
2021/05/20 01:26:43;;;;;;;;;;;;;;;;;;5090716;28;19927;-46
2021/05/20 01:29:09;;;;;;;;;;;;;;;;;;5089290;28;19988;-46
2021/05/20 01:31:35;;;;;;;;;;;;;;;;;;5082711;28;20168;-46
2021/05/20 01:34:01;;;;;;;;;;;;;;;;;;5088612;28;19942;-45
2021/05/20 01:36:27;;;;;;;;;;;;;;;;;;5078979;28;20160;-45
2021/05/20 01:38:53;;;;;;;;;;;;;;;;;;5093029;28;19935;-46
2021/05/20 01:41:19;;;;;;;;;;;;;;;;;;5079263;28;19917;-45
2021/05/20 01:43:45;;;;;;;;;;;;;;;;;;5092039;28;19918;-47
2021/05/20 01:46:11;;;;;;;;;;;;;;;;;;5077664;28;20788;-46
2021/05/20 01:48:37;;;;;;;;;;;;;;;;;;5093350;28;20408;-46
2021/05/20 01:51:03;;;;;;;;;;;;;;;;;;5081340;28;19945;-46
2021/05/20 01:55:54;;;;;;;;;;;;;;;;;;5023246;28;19921;-46
2021/05/20 01:58:20;;;;;;;;;;;;;;;;;;5029656;28;20034;-45
2021/05/20 02:00:46;;;;;;;;;;;;;;;;;;5018025;28;19917;-46
2021/05/20 02:03:12;;;;;;;;;;;;;;;;;;5030700;28;20217;-46
2021/05/20 02:05:38;;;;;;;;;;;;;;;;;;5028244;28;20658;-46
2021/05/20 02:08:04;;;;;;;;;;;;;;;;;;5023011;28;20329;-46
2021/05/20 02:10:29;;;;;;;;;;;;;;;;;;5025378;28;19919;-46
2021/05/20 02:12:55;;;;;;;;;;;;;;;;;;5021957;28;20237;-46
2021/05/20 02:15:21;;;;;;;;;;;;;;;;;;5029144;28;19994;-46
2021/05/20 02:17:47;;;;;;;;;;;;;;;;;;5019971;28;19914;-45
2021/05/20 02:20:13;;;;;;;;;;;;;;;;;;5028373;28;20372;-45
2021/05/20 02:22:39;;;;;;;;;;;;;;;;;;5019397;28;20066;-46
2021/05/20 02:25:05;;;;;;;;;;;;;;;;;;5030682;28;19916;-45
2021/05/20 02:27:31;;;;;;;;;;;;;;;;;;5019989;28;19917;-46
2021/05/20 02:29:57;;;;;;;;;;;;;;;;;;5029882;28;20277;-45
2021/05/20 02:32:22;;;;;;;;;;;;;;;;;;5019335;28;19975;-46
2021/05/20 02:34:48;;;;;;;;;;;;;;;;;;5031143;28;20296;-45
2021/05/20 02:37:14;;;;;;;;;;;;;;;;;;5020927;28;19917;-53
2021/05/20 02:39:40;;;;;;;;;;;;;;;;;;5033106;28;19956;-46
2021/05/20 02:42:06;;;;;;;;;;;;;;;;;;5023628;28;19918;-46
2021/05/20 02:44:32;;;;;;;;;;;;;;;;;;5020932;28;20257;-45
2021/05/20 02:46:58;;;;;;;;;;;;;;;;;;5025262;28;20893;-46
2021/05/20 02:49:24;;;;;;;;;;;;;;;;;;5019440;28;19914;-44
2021/05/20 02:51:50;;;;;;;;;;;;;;;;;;5027959;28;19921;-45
2021/05/20 02:54:15;;;;;;;;;;;;;;;;;;5017472;28;19940;-46
2021/05/20 02:57:26;;;;;;;;;;;;;;;;;;5108857;27;19961;-47
2021/05/20 02:59:54;;;;;;;;;;;;;;;;;;5100071;27;20621;-47
2021/05/20 03:02:19;;;;;;;;;;;;;;;;;;5106637;27;20228;-46
2021/05/20 03:04:45;;;;;;;;;;;;;;;;;;5096857;27;19931;-45
2021/05/20 03:07:11;;;;;;;;;;;;;;;;;;5108374;27;19912;-46
2021/05/20 03:09:37;;;;;;;;;;;;;;;;;;5098530;27;19911;-46
2021/05/20 03:12:03;;;;;;;;;;;;;;;;;;5101888;27;20299;-46
2021/05/20 03:14:29;;;;;;;;;;;;;;;;;;5098324;27;19916;-46
2021/05/20 03:16:55;;;;;;;;;;;;;;;;;;5106171;27;20107;-46
2021/05/20 03:19:21;;;;;;;;;;;;;;;;;;5094427;27;19923;-46
2021/05/20 03:21:47;;;;;;;;;;;;;;;;;;5103524;27;19919;-46
2021/05/20 03:24:13;;;;;;;;;;;;;;;;;;5097156;27;19953;-46
2021/05/20 03:26:39;;;;;;;;;;;;;;;;;;5101909;27;19915;-46
2021/05/20 03:29:04;;;;;;;;;;;;;;;;;;5107601;27;20532;-46
2021/05/20 03:31:30;;;;;;;;;;;;;;;;;;5095850;27;20006;-46
2021/05/20 03:33:56;;;;;;;;;;;;;;;;;;5106270;27;19916;-45
2021/05/20 03:36:22;;;;;;;;;;;;;;;;;;5098537;27;20014;-47
2021/05/20 03:38:48;;;;;;;;;;;;;;;;;;5102243;27;19937;-47
2021/05/20 03:41:14;;;;;;;;;;;;;;;;;;5097739;27;20108;-47
2021/05/20 03:43:40;;;;;;;;;;;;;;;;;;5100482;27;19938;-47
2021/05/20 03:47:38;;;;;;;;;;;;;;;;;;5024708;28;19913;-47
2021/05/20 03:52:57;;;;;;;;;;;;;;;;;;5069228;27;20374;-46
2021/05/20 03:55:23;;;;;;;;;;;;;;;;;;5067928;28;19921;-45
2021/05/20 04:00:33;;;;;;;;;;;;;;;;;;5049084;28;19913;-47
2021/05/20 04:07:26;;;;;;;;;;;;;;;;;;5060922;27;20355;-46
2021/05/20 04:09:52;;;;;;;;;;;;;;;;;;5069171;28;20525;-46
2021/05/20 04:12:17;;;;;;;;;;;;;;;;;;5066647;28;20668;-46
2021/05/20 04:14:43;;;;;;;;;;;;;;;;;;5069656;28;20185;-45
2021/05/20 04:17:09;;;;;;;;;;;;;;;;;;5039917;28;20011;-45
2021/05/20 04:19:35;;;;;;;;;;;;;;;;;;5047041;28;20017;-45
2021/05/20 04:22:01;;;;;;;;;;;;;;;;;;5060109;28;19912;-45
2021/05/20 04:24:57;;;;;;;;;;;;;;;;;;5050657;28;19921;-46
2021/05/20 04:27:23;;;;;;;;;;;;;;;;;;5042250;28;19954;-45
2021/05/20 04:29:52;;;;;;;;;;;;;;;;;;5045795;28;20018;-46
2021/05/20 04:32:18;;;;;;;;;;;;;;;;;;5044950;28;19923;-46
2021/05/20 04:37:07;;;;;;;;;;;;;;;;;;4973565;28;19948;-47
2021/05/20 04:40:07;;;;;;;;;;;;;;;;;;5029713;27;20866;-46
2021/05/20 04:42:32;;;;;;;;;;;;;;;;;;5036014;27;19922;-46
2021/05/20 04:44:58;;;;;;;;;;;;;;;;;;5015776;28;19923;-46
2021/05/20 04:47:27;;;;;;;;;;;;;;;;;;5012018;28;19921;-45
2021/05/20 04:49:53;;;;;;;;;;;;;;;;;;5002873;28;19930;-46
2021/05/20 04:52:19;;;;;;;;;;;;;;;;;;5016277;28;20410;-46
2021/05/20 04:54:44;;;;;;;;;;;;;;;;;;5002571;28;19909;-45
2021/05/20 04:57:10;;;;;;;;;;;;;;;;;;5019470;28;20060;-46
2021/05/20 04:59:36;;;;;;;;;;;;;;;;;;5007663;28;20417;-46
2021/05/20 05:02:02;;;;;;;;;;;;;;;;;;5021596;28;20567;-46
2021/05/20 05:04:28;;;;;;;;;;;;;;;;;;5003439;28;20354;-45
2021/05/20 05:09:23;;;;;;;;;;;;;;;;;;5067282;28;20381;-45
2021/05/20 05:11:49;;;;;;;;;;;;;;;;;;5070801;28;19930;-46
2021/05/20 05:14:15;;;;;;;;;;;;;;;;;;5066720;28;20333;-46
2021/05/20 05:18:32;;;;;;;;;;;;;;;;;;5036663;28;20002;-45
2021/05/20 05:20:58;;;;;;;;;;;;;;;;;;5024752;28;21089;-46
2021/05/20 05:23:24;;;;;;;;;;;;;;;;;;5033404;28;19913;-46
2021/05/20 05:25:50;;;;;;;;;;;;;;;;;;5022734;28;20417;-47
2021/05/20 05:28:16;;;;;;;;;;;;;;;;;;5032452;28;20072;-46
2021/05/20 05:30:45;;;;;;;;;;;;;;;;;;5021239;28;19919;-45
2021/05/20 05:33:11;;;;;;;;;;;;;;;;;;5033226;28;19913;-45
2021/05/20 05:40:36;;;;;;;;;;;;;;;;;;5024458;28;22175;-45
2021/05/20 05:43:02;;;;;;;;;;;;;;;;;;5034673;28;19997;-46
2021/05/20 05:45:28;;;;;;;;;;;;;;;;;;5023836;28;20386;-46
2021/05/20 05:47:56;;;;;;;;;;;;;;;;;;5026828;28;19917;-46
2021/05/20 05:50:22;;;;;;;;;;;;;;;;;;5021123;28;19913;-47
2021/05/20 05:52:48;;;;;;;;;;;;;;;;;;5037227;28;19928;-46
2021/05/20 05:55:14;;;;;;;;;;;;;;;;;;5029682;28;20404;-46
2021/05/20 05:57:40;;;;;;;;;;;;;;;;;;5027252;28;19971;-46
2021/05/20 06:00:06;;;;;;;;;;;;;;;;;;5031443;28;19923;-46
2021/05/20 06:02:32;;;;;;;;;;;;;;;;;;5025302;28;19913;-46
2021/05/20 06:10:53;;;;;;;;;;;;;;;;;;5038070;28;19947;-47
2021/05/20 06:14:46;;;;;;;;;;;;;;;;;;5094080;27;19935;-45
2021/05/20 06:17:12;;;;;;;;;;;;;;;;;;5078011;28;19920;-46
2021/05/20 06:19:38;;;;;;;;;;;;;;;;;;5086541;28;19908;-46
2021/05/20 06:22:07;;;;;;;;;;;;;;;;;;5077219;28;19952;-46
2021/05/20 06:28:03;;;;;;;;;;;;;;;;;;5019404;28;19917;-47
2021/05/20 06:30:29;;;;;;;;;;;;;;;;;;5040991;28;19952;-46
2021/05/20 06:32:54;;;;;;;;;;;;;;;;;;5020664;28;19928;-47
2021/05/20 06:35:28;;;;;;;;;;;;;;;;;;5041419;28;19935;-46
2021/05/20 06:37:54;;;;;;;;;;;;;;;;;;5019623;28;19921;-46
2021/05/20 06:40:20;;;;;;;;;;;;;;;;;;5023120;28;19913;-46
2021/05/20 06:44:29;;;;;;;;;;;;;;;;;;5081452;27;19920;-45
2021/05/20 06:46:55;;;;;;;;;;;;;;;;;;5088004;28;20018;-45
2021/05/20 06:49:21;;;;;;;;;;;;;;;;;;5076836;28;20019;-46
2021/05/20 06:53:30;;;;;;;;;;;;;;;;;;5014408;28;19925;-50
2021/05/20 06:55:59;;;;;;;;;;;;;;;;;;5004941;28;19913;-49
2021/05/20 07:01:12;;;;;;;;;;;;;;;;;;4995926;28;20429;-46
2021/05/20 07:03:38;;;;;;;;;;;;;;;;;;5007873;28;19909;-45
2021/05/20 07:06:06;;;;;;;;;;;;;;;;;;4996728;28;20260;-48
2021/05/20 07:11:19;;;;;;;;;;;;;;;;;;4978575;28;20432;-44
2021/05/20 07:13:45;;;;;;;;;;;;;;;;;;5005600;28;20318;-43
2021/05/20 07:16:11;;;;;;;;;;;;;;;;;;5004627;28;20421;-43
2021/05/20 07:18:37;;;;;;;;;;;;;;;;;;5008766;28;19983;-44
2021/05/20 07:21:03;;;;;;;;;;;;;;;;;;5002403;28;20341;-41
2021/05/20 07:23:30;;;;;;;;;;;;;;;;;;5014314;28;19932;-41
2021/05/20 07:25:56;;;;;;;;;;;;;;;;;;5013549;28;19913;-41
2021/05/20 07:28:22;;;;;;;;;;;;;;;;;;5023655;28;19971;-41
2021/05/20 07:30:48;;;;;;;;;;;;;;;;;;5004068;28;19924;-41
2021/05/20 07:33:14;;;;;;;;;;;;;;;;;;5008096;28;20451;-41
2021/05/20 07:35:40;;;;;;;;;;;;;;;;;;5009810;28;20412;-40
2021/05/20 07:38:06;;;;;;;;;;;;;;;;;;5011714;28;20087;-42
2021/05/20 07:40:32;;;;;;;;;;;;;;;;;;5011019;28;19920;-43
2021/05/20 07:42:58;;;;;;;;;;;;;;;;;;5018975;28;20735;-44
2021/05/20 07:45:24;;;;;;;;;;;;;;;;;;5023903;28;19980;-42
2021/05/20 07:47:50;;;;;;;;;;;;;;;;;;5020428;28;19913;-44
2021/05/20 07:50:16;;;;;;;;;;;;;;;;;;5021950;28;19913;-43
2021/05/20 07:52:41;;;;;;;;;;;;;;;;;;5035258;28;20083;-42
2021/05/20 07:55:10;;;;;;;;;;;;;;;;;;5040788;28;19959;-44
2021/05/20 07:57:38;;;;;;;;;;;;;;;;;;5013780;28;20976;-46
2021/05/20 08:00:04;;;;;;;;;;;;;;;;;;5032331;28;19913;-46
2021/05/20 08:02:47;;;;;;;;;;;;;;;;;;5030180;28;20279;-42
2021/05/20 08:05:23;;;;;;;;;;;;;;;;;;5012744;28;19987;-44
2021/05/20 08:07:56;;;;;;;;;;;;;;;;;;4997634;28;19992;-44
2021/05/20 08:12:48;;;;;;;;;;;;;;;;;;5019821;28;20073;-43
2021/05/20 08:15:14;;;;;;;;;;;;;;;;;;5012507;28;19912;-43
2021/05/20 08:17:40;;;;;;;;;;;;;;;;;;4998972;28;19923;-43
2021/05/20 08:20:06;;;;;;;;;;;;;;;;;;5010607;28;19909;-44
2021/05/20 08:22:32;;;;;;;;;;;;;;;;;;5016342;28;20093;-42
2021/05/20 08:24:58;;;;;;;;;;;;;;;;;;5011990;28;19982;-44
2021/05/20 08:27:24;;;;;;;;;;;;;;;;;;5009867;28;19913;-46
2021/05/20 08:29:50;;;;;;;;;;;;;;;;;;5010277;28;19921;-44
2021/05/20 08:32:16;;;;;;;;;;;;;;;;;;5015574;28;19967;-43
2021/05/20 08:34:42;;;;;;;;;;;;;;;;;;4992539;28;19917;-45
2021/05/20 08:37:08;;;;;;;;;;;;;;;;;;5015693;28;19913;-45
2021/05/20 08:39:33;;;;;;;;;;;;;;;;;;5014294;28;20118;-44
2021/05/20 08:41:59;;;;;;;;;;;;;;;;;;4996172;28;19925;-45
2021/05/20 08:44:25;;;;;;;;;;;;;;;;;;5016085;28;19909;-44
2021/05/20 08:46:55;;;;;;;;;;;;;;;;;;5007125;28;19925;-43
2021/05/20 08:49:21;;;;;;;;;;;;;;;;;;5016225;28;20455;-46
2021/05/20 08:51:50;;;;;;;;;;;;;;;;;;5005628;28;19929;-48
2021/05/20 08:54:16;;;;;;;;;;;;;;;;;;5017287;28;20017;-44
2021/05/20 08:56:42;;;;;;;;;;;;;;;;;;5008202;28;20080;-42
2021/05/20 08:59:07;;;;;;;;;;;;;;;;;;5016754;28;20062;-44
2021/05/20 09:01:33;;;;;;;;;;;;;;;;;;5003891;28;20127;-45
2021/05/20 09:03:59;;;;;;;;;;;;;;;;;;5020325;28;20023;-49
2021/05/20 09:06:25;;;;;;;;;;;;;;;;;;4993891;28;19949;-43
2021/05/20 09:08:51;;;;;;;;;;;;;;;;;;5012150;28;19967;-43
2021/05/20 09:11:17;;;;;;;;;;;;;;;;;;5006648;28;19921;-44
2021/05/20 09:13:43;;;;;;;;;;;;;;;;;;5008355;28;19921;-44
2021/05/20 09:16:09;;;;;;;;;;;;;;;;;;4991099;28;19917;-44
2021/05/20 09:18:35;;;;;;;;;;;;;;;;;;5008382;28;20471;-44
2021/05/20 09:21:01;;;;;;;;;;;;;;;;;;5011236;28;19929;-45
2021/05/20 09:23:27;;;;;;;;;;;;;;;;;;5007772;28;20516;-43
2021/05/20 09:25:53;;;;;;;;;;;;;;;;;;4997415;28;19913;-47
2021/05/20 09:28:19;;;;;;;;;;;;;;;;;;5012163;28;20384;-43
2021/05/20 09:30:45;;;;;;;;;;;;;;;;;;5013016;28;19916;-42
2021/05/20 09:33:11;;;;;;;;;;;;;;;;;;5009731;28;20602;-43
2021/05/20 09:35:37;;;;;;;;;;;;;;;;;;5012582;28;19913;-44
2021/05/20 09:38:03;;;;;;;;;;;;;;;;;;4993216;28;19917;-46
2021/05/20 09:40:29;;;;;;;;;;;;;;;;;;5012871;28;19920;-43
2021/05/20 09:42:55;;;;;;;;;;;;;;;;;;5014333;28;19924;-45
2021/05/20 09:45:21;;;;;;;;;;;;;;;;;;5012410;28;19987;-43
2021/05/20 09:47:50;;;;;;;;;;;;;;;;;;4994957;28;19940;-42
2021/05/20 09:50:16;;;;;;;;;;;;;;;;;;5016285;28;19924;-43
2021/05/20 09:52:42;;;;;;;;;;;;;;;;;;5012747;28;20725;-43
2021/05/20 09:55:08;;;;;;;;;;;;;;;;;;5013846;28;21043;-45
2021/05/20 09:57:34;;;;;;;;;;;;;;;;;;5021095;28;19962;-44
2021/05/20 10:00:00;;;;;;;;;;;;;;;;;;5004370;28;19924;-42
2021/05/20 10:02:26;;;;;;;;;;;;;;;;;;5019740;28;20542;-43
2021/05/20 10:04:53;;;;;;;;;;;;;;;;;;5003813;28;19921;-43
2021/05/20 10:07:19;;;;;;;;;;;;;;;;;;5020528;28;19999;-44
2021/05/20 10:09:45;;;;;;;;;;;;;;;;;;4999600;28;20012;-44
2021/05/20 10:12:11;;;;;;;;;;;;;;;;;;5018179;28;19980;-44
2021/05/20 10:14:37;;;;;;;;;;;;;;;;;;5013139;28;20055;-43
2021/05/20 10:17:03;;;;;;;;;;;;;;;;;;5023052;28;19920;-44
2021/05/20 10:19:29;;;;;;;;;;;;;;;;;;5002498;28;19913;-43
2021/05/20 10:21:55;;;;;;;;;;;;;;;;;;5010008;28;20056;-43
2021/05/20 10:24:21;;;;;;;;;;;;;;;;;;4992155;28;20006;-44
2021/05/20 10:26:47;;;;;;;;;;;;;;;;;;4997526;28;20302;-43
2021/05/20 10:29:13;;;;;;;;;;;;;;;;;;5004019;28;19921;-45
2021/05/20 10:31:39;;;;;;;;;;;;;;;;;;5008002;28;19929;-43
2021/05/20 10:34:04;;;;;;;;;;;;;;;;;;5015310;28;20421;-43
2021/05/20 10:36:31;;;;;;;;;;;;;;;;;;5016510;28;19921;-43
2021/05/20 10:38:57;;;;;;;;;;;;;;;;;;5009324;28;19921;-44
2021/05/20 10:41:25;;;;;;;;;;;;;;;;;;4990328;28;19939;-44
2021/05/20 10:43:51;;;;;;;;;;;;;;;;;;5016707;28;20596;-43
2021/05/20 10:46:16;;;;;;;;;;;;;;;;;;5005862;28;19976;-45
2021/05/20 10:48:42;;;;;;;;;;;;;;;;;;5001445;28;19916;-43
2021/05/20 10:51:08;;;;;;;;;;;;;;;;;;5010944;28;20126;-44
2021/05/20 10:53:34;;;;;;;;;;;;;;;;;;5012891;28;19921;-43
2021/05/20 10:56:00;;;;;;;;;;;;;;;;;;5009882;28;19932;-43
2021/05/20 10:58:26;;;;;;;;;;;;;;;;;;5012939;28;20046;-44
2021/05/20 11:00:52;;;;;;;;;;;;;;;;;;5004168;28;19928;-45
2021/05/20 11:03:18;;;;;;;;;;;;;;;;;;5010062;28;19928;-46
2021/05/20 11:05:44;;;;;;;;;;;;;;;;;;5001108;28;19924;-43
2021/05/20 11:08:10;;;;;;;;;;;;;;;;;;5011864;28;19963;-46
2021/05/20 11:10:36;;;;;;;;;;;;;;;;;;5014214;28;20030;-47
2021/05/20 11:13:02;;;;;;;;;;;;;;;;;;5000644;28;20023;-47
2021/05/20 11:15:28;;;;;;;;;;;;;;;;;;5014764;28;20048;-46
2021/05/20 11:17:53;;;;;;;;;;;;;;;;;;5000534;28;20000;-44
2021/05/20 11:20:22;;;;;;;;;;;;;;;;;;5012273;28;19921;-45
2021/05/20 11:22:47;;;;;;;;;;;;;;;;;;5002138;28;20381;-43
2021/05/20 11:25:13;;;;;;;;;;;;;;;;;;5012538;28;19921;-46
2021/05/20 11:27:39;;;;;;;;;;;;;;;;;;5002729;28;19921;-46
2021/05/20 11:30:05;;;;;;;;;;;;;;;;;;5005030;28;20449;-47
2021/05/20 11:32:32;;;;;;;;;;;;;;;;;;5000433;28;19928;-46
2021/05/20 11:35:15;;;;;;;;;;;;;;;;;;5012134;28;19920;-44
2021/05/20 11:37:42;;;;;;;;;;;;;;;;;;5002608;28;19917;-43
2021/05/20 11:40:08;;;;;;;;;;;;;;;;;;5011441;28;19933;-44
2021/05/20 11:42:34;;;;;;;;;;;;;;;;;;5005255;28;19975;-45
2021/05/20 11:44:59;;;;;;;;;;;;;;;;;;5007892;28;19921;-46
2021/05/20 11:47:25;;;;;;;;;;;;;;;;;;5015897;28;19920;-47
2021/05/20 11:49:51;;;;;;;;;;;;;;;;;;5006291;28;19921;-48
2021/05/20 11:52:18;;;;;;;;;;;;;;;;;;5017773;28;19928;-45
2021/05/20 11:54:45;;;;;;;;;;;;;;;;;;5011373;28;19988;-49
2021/05/20 11:57:11;;;;;;;;;;;;;;;;;;5012946;28;19955;-46
2021/05/20 11:59:37;;;;;;;;;;;;;;;;;;5002170;28;20498;-44
2021/05/20 12:02:03;;;;;;;;;;;;;;;;;;5009002;28;20008;-44
2021/05/20 12:04:29;;;;;;;;;;;;;;;;;;4989438;28;19994;-45
2021/05/20 12:06:55;;;;;;;;;;;;;;;;;;5011264;28;19921;-45
2021/05/20 12:09:21;;;;;;;;;;;;;;;;;;5003222;28;20811;-44
2021/05/20 12:11:47;;;;;;;;;;;;;;;;;;4999111;28;19924;-45
2021/05/20 12:14:13;;;;;;;;;;;;;;;;;;5003999;28;20442;-45
2021/05/20 12:16:39;;;;;;;;;;;;;;;;;;5010350;28;20470;-45
2021/05/20 12:19:04;;;;;;;;;;;;;;;;;;5003402;28;20162;-46
2021/05/20 12:21:30;;;;;;;;;;;;;;;;;;5000875;28;19951;-45
2021/05/20 12:23:56;;;;;;;;;;;;;;;;;;5015188;28;19913;-47
2021/05/20 12:26:22;;;;;;;;;;;;;;;;;;5014665;28;19963;-46
2021/05/20 12:28:48;;;;;;;;;;;;;;;;;;5017948;28;19914;-47
2021/05/20 12:31:15;;;;;;;;;;;;;;;;;;5004668;28;19928;-56
2021/05/20 12:33:41;;;;;;;;;;;;;;;;;;5012820;28;19993;-57
2021/05/20 12:36:07;;;;;;;;;;;;;;;;;;5006921;28;19913;-49
2021/05/20 12:38:32;;;;;;;;;;;;;;;;;;5010230;28;19943;-51
2021/05/20 12:41:00;;;;;;;;;;;;;;;;;;5008724;28;20542;-55
2021/05/20 12:43:28;;;;;;;;;;;;;;;;;;5010076;28;20009;-47
2021/05/20 12:45:54;;;;;;;;;;;;;;;;;;5002989;28;19924;-50
2021/05/20 12:48:19;;;;;;;;;;;;;;;;;;5012271;28;19917;-46
2021/05/20 12:50:45;;;;;;;;;;;;;;;;;;5006280;28;19971;-48
2021/05/20 12:53:11;;;;;;;;;;;;;;;;;;5018034;28;20028;-50
2021/05/20 12:55:37;;;;;;;;;;;;;;;;;;5010840;28;21182;-50
2021/05/20 12:58:03;;;;;;;;;;;;;;;;;;5011492;28;19923;-50
2021/05/20 13:00:29;;;;;;;;;;;;;;;;;;5007435;28;21191;-53
2021/05/20 13:02:55;;;;;;;;;;;;;;;;;;5003478;28;19921;-49
2021/05/20 13:05:21;;;;;;;;;;;;;;;;;;4998867;28;19959;-54
2021/05/20 13:07:47;;;;;;;;;;;;;;;;;;5002784;28;19963;-47
2021/05/20 13:10:13;;;;;;;;;;;;;;;;;;5019585;28;19921;-48
2021/05/20 13:12:38;;;;;;;;;;;;;;;;;;5005014;28;20003;-49
2021/05/20 13:15:09;;;;;;;;;;;;;;;;;;5000190;28;19913;-48
2021/05/20 13:20:16;;;;;;;;;;;;;;;;;;5010854;28;19918;-47
2021/05/20 13:22:42;;;;;;;;;;;;;;;;;;5000759;28;19926;-48
2021/05/20 13:25:08;;;;;;;;;;;;;;;;;;5017681;28;19916;-52
2021/05/20 13:27:34;;;;;;;;;;;;;;;;;;5003012;28;19928;-51
2021/05/20 13:30:02;;;;;;;;;;;;;;;;;;4997426;28;20095;-49
2021/05/20 13:34:54;;;;;;;;;;;;;;;;;;5016216;28;19921;-48
2021/05/20 13:37:23;;;;;;;;;;;;;;;;;;5005312;28;19956;-54
2021/05/20 13:39:49;;;;;;;;;;;;;;;;;;4997872;28;20012;-53
2021/05/20 13:42:14;;;;;;;;;;;;;;;;;;5010396;28;19921;-55
2021/05/20 13:44:46;;;;;;;;;;;;;;;;;;5009203;28;20199;-50
2021/05/20 13:47:12;;;;;;;;;;;;;;;;;;5009625;28;20011;-50
2021/05/20 13:49:41;;;;;;;;;;;;;;;;;;5005250;28;19921;-50
2021/05/20 13:52:08;;;;;;;;;;;;;;;;;;5009072;28;19925;-48
2021/05/20 13:54:33;;;;;;;;;;;;;;;;;;5001017;28;19913;-47
2021/05/20 13:57:00;;;;;;;;;;;;;;;;;;4992998;28;19921;-45
2021/05/20 13:59:27;;;;;;;;;;;;;;;;;;4995932;28;20606;-46
2021/05/20 14:01:53;;;;;;;;;;;;;;;;;;4998975;28;19921;-48
2021/05/20 14:04:25;;;;;;;;;;;;;;;;;;4990851;28;20010;-46
2021/05/20 14:06:51;;;;;;;;;;;;;;;;;;5011302;28;20052;-48
2021/05/20 14:09:17;;;;;;;;;;;;;;;;;;5002700;28;20425;-50
2021/05/20 14:11:42;;;;;;;;;;;;;;;;;;5013725;28;19955;-52
2021/05/20 14:14:08;;;;;;;;;;;;;;;;;;5000956;28;19913;-49
2021/05/20 14:16:34;;;;;;;;;;;;;;;;;;5016510;28;20139;-47
2021/05/20 14:19:01;;;;;;;;;;;;;;;;;;5012533;28;20816;-47
2021/05/20 14:21:30;;;;;;;;;;;;;;;;;;5004534;28;19916;-46
2021/05/20 14:23:56;;;;;;;;;;;;;;;;;;4998004;28;19985;-51
2021/05/20 14:26:21;;;;;;;;;;;;;;;;;;5007786;28;20028;-45
2021/05/20 14:28:47;;;;;;;;;;;;;;;;;;5012815;28;19917;-50
2021/05/20 14:31:15;;;;;;;;;;;;;;;;;;5006722;28;19932;-46
2021/05/20 14:33:41;;;;;;;;;;;;;;;;;;5014867;28;20245;-49
2021/05/20 14:36:07;;;;;;;;;;;;;;;;;;4990348;28;20027;-48
2021/05/20 14:38:33;;;;;;;;;;;;;;;;;;5014425;28;19947;-48
2021/05/20 14:40:59;;;;;;;;;;;;;;;;;;4989880;28;20111;-48
2021/05/20 14:43:25;;;;;;;;;;;;;;;;;;5001268;28;19933;-45
2021/05/20 14:45:51;;;;;;;;;;;;;;;;;;5009269;28;19922;-48
2021/05/20 14:48:18;;;;;;;;;;;;;;;;;;5000501;28;19924;-46
2021/05/20 14:50:56;;;;;;;;;;;;;;;;;;5007512;28;20029;-48
2021/05/20 14:53:25;;;;;;;;;;;;;;;;;;5014265;28;19925;-48
2021/05/20 14:56:55;;;;;;;;;;;;;;;;;;5010657;28;20818;-45
2021/05/20 15:06:52;;;;;;;;;;;;;;;;;;4987250;28;19922;-46
2021/05/20 15:12:00;;;;;;;;;;;;;;;;;;5006401;28;19917;-48
2021/05/20 15:14:37;;;;;;;;;;;;;;;;;;5012106;28;19913;-46
2021/05/20 15:17:06;;;;;;;;;;;;;;;;;;5003604;28;19960;-46
2021/05/20 15:19:32;;;;;;;;;;;;;;;;;;5015059;28;19914;-48
2021/05/20 15:21:58;;;;;;;;;;;;;;;;;;5005787;28;19921;-47
2021/05/20 15:24:23;;;;;;;;;;;;;;;;;;5013119;28;19932;-46
2021/05/20 15:26:49;;;;;;;;;;;;;;;;;;5006265;28;20411;-45
2021/05/20 15:29:15;;;;;;;;;;;;;;;;;;5008859;28;19913;-48
2021/05/20 15:31:41;;;;;;;;;;;;;;;;;;5013890;28;19921;-46
2021/05/20 15:34:07;;;;;;;;;;;;;;;;;;5007792;28;20525;-45
2021/05/20 15:36:33;;;;;;;;;;;;;;;;;;5016704;28;19917;-45
2021/05/20 15:38:59;;;;;;;;;;;;;;;;;;5014133;28;20019;-46
2021/05/20 15:41:25;;;;;;;;;;;;;;;;;;5016485;28;20100;-45
2021/05/20 15:43:51;;;;;;;;;;;;;;;;;;4994379;28;19921;-47
2021/05/20 15:46:18;;;;;;;;;;;;;;;;;;5014110;28;19920;-46
2021/05/20 15:51:29;;;;;;;;;;;;;;;;;;5011414;28;20154;-46
2021/05/20 15:53:55;;;;;;;;;;;;;;;;;;5009448;28;20664;-46
2021/05/20 15:56:21;;;;;;;;;;;;;;;;;;5016577;28;20183;-47
2021/05/20 15:58:47;;;;;;;;;;;;;;;;;;5003860;28;19913;-45
2021/05/20 16:01:13;;;;;;;;;;;;;;;;;;4997211;28;19955;-45
2021/05/20 16:03:39;;;;;;;;;;;;;;;;;;4996027;28;19925;-45
2021/05/20 16:06:05;;;;;;;;;;;;;;;;;;5006270;28;19912;-45
2021/05/20 16:08:37;;;;;;;;;;;;;;;;;;4997012;28;19971;-45
2021/05/20 16:16:13;;;;;;;;;;;;;;;;;;5019537;28;19916;-45
2021/05/20 16:18:39;;;;;;;;;;;;;;;;;;5016169;28;20027;-45
2021/05/20 16:21:05;;;;;;;;;;;;;;;;;;5015433;28;19959;-45
2021/05/20 16:27:02;;;;;;;;;;;;;;;;;;5008601;28;19948;-45
2021/05/20 16:37:21;;;;;;;;;;;;;;;;;;5015568;28;19932;-44
2021/05/20 16:39:47;;;;;;;;;;;;;;;;;;4998259;28;19917;-44
2021/05/20 16:42:13;;;;;;;;;;;;;;;;;;5011587;28;20280;-44
2021/05/20 16:44:40;;;;;;;;;;;;;;;;;;5020900;28;20350;-45
2021/05/20 16:47:06;;;;;;;;;;;;;;;;;;5005821;28;19968;-45
2021/05/20 16:49:32;;;;;;;;;;;;;;;;;;5017640;28;19924;-45
2021/05/20 16:52:02;;;;;;;;;;;;;;;;;;5013183;28;20096;-44
2021/05/20 16:54:39;;;;;;;;;;;;;;;;;;5021551;28;19920;-45
2021/05/20 16:57:18;;;;;;;;;;;;;;;;;;5018363;28;19928;-43
2021/05/20 16:59:44;;;;;;;;;;;;;;;;;;5020952;28;20044;-43
2021/05/20 17:02:10;;;;;;;;;;;;;;;;;;5017891;28;19943;-44
2021/05/20 17:04:36;;;;;;;;;;;;;;;;;;5015831;28;19925;-44
2021/05/20 17:07:04;;;;;;;;;;;;;;;;;;4995617;28;20000;-44
2021/05/20 17:09:31;;;;;;;;;;;;;;;;;;5016722;28;19917;-43
2021/05/20 17:11:59;;;;;;;;;;;;;;;;;;5015384;28;20589;-44
2021/05/20 17:14:25;;;;;;;;;;;;;;;;;;5014132;28;19914;-44
2021/05/20 17:16:51;;;;;;;;;;;;;;;;;;5009973;28;19914;-44
2021/05/20 17:19:17;;;;;;;;;;;;;;;;;;4996034;28;19928;-44
2021/05/20 17:21:42;;;;;;;;;;;;;;;;;;5007798;28;19960;-44
2021/05/20 17:24:10;;;;;;;;;;;;;;;;;;5008756;28;19924;-44
2021/05/20 17:26:36;;;;;;;;;;;;;;;;;;5014365;28;20427;-43
2021/05/20 17:29:02;;;;;;;;;;;;;;;;;;5006281;28;19921;-44
2021/05/20 17:31:27;;;;;;;;;;;;;;;;;;5015692;28;19914;-44
2021/05/20 17:33:53;;;;;;;;;;;;;;;;;;5007496;28;20382;-44
2021/05/20 17:36:20;;;;;;;;;;;;;;;;;;5013708;28;20141;-43
2021/05/20 17:38:47;;;;;;;;;;;;;;;;;;4987131;28;19909;-44
2021/05/20 17:41:13;;;;;;;;;;;;;;;;;;4998215;28;20008;-43
2021/05/20 17:43:39;;;;;;;;;;;;;;;;;;5003402;28;20063;-45
2021/05/20 17:46:05;;;;;;;;;;;;;;;;;;4998269;28;19923;-43
2021/05/20 17:48:37;;;;;;;;;;;;;;;;;;5003406;28;20892;-43
2021/05/20 17:51:03;;;;;;;;;;;;;;;;;;5012742;28;20652;-43
2021/05/20 17:53:30;;;;;;;;;;;;;;;;;;5001987;28;20011;-44
2021/05/20 17:55:56;;;;;;;;;;;;;;;;;;5015065;28;19955;-43
2021/05/20 17:58:22;;;;;;;;;;;;;;;;;;5007499;28;19921;-43
2021/05/20 18:00:48;;;;;;;;;;;;;;;;;;5015444;28;19913;-43
2021/05/20 18:03:14;;;;;;;;;;;;;;;;;;5006789;28;19937;-46
2021/05/20 18:05:40;;;;;;;;;;;;;;;;;;5010944;28;19910;-44
2021/05/20 18:08:26;;;;;;;;;;;;;;;;;;4996139;28;19917;-43
2021/05/20 18:13:32;;;;;;;;;;;;;;;;;;5011773;28;20554;-44
2021/05/20 18:16:13;;;;;;;;;;;;;;;;;;5008637;28;19924;-44
2021/05/20 18:23:52;;;;;;;;;;;;;;;;;;5013244;28;20651;-43
2021/05/20 18:26:18;;;;;;;;;;;;;;;;;;5002231;28;20625;-44
2021/05/20 18:28:44;;;;;;;;;;;;;;;;;;5013886;28;19917;-43
2021/05/20 18:31:12;;;;;;;;;;;;;;;;;;5004169;28;20316;-44
2021/05/20 18:33:38;;;;;;;;;;;;;;;;;;4992550;28;19937;-44
2021/05/20 18:36:03;;;;;;;;;;;;;;;;;;5003135;28;19947;-44
2021/05/20 18:38:32;;;;;;;;;;;;;;;;;;5004340;28;20411;-44
2021/05/20 18:40:59;;;;;;;;;;;;;;;;;;5002014;28;19920;-44
2021/05/20 18:43:25;;;;;;;;;;;;;;;;;;5011121;28;20553;-43
2021/05/20 18:45:50;;;;;;;;;;;;;;;;;;5000826;28;20361;-42
2021/05/20 18:48:17;;;;;;;;;;;;;;;;;;5009470;28;19913;-43
2021/05/20 18:50:43;;;;;;;;;;;;;;;;;;5000407;28;19959;-43
2021/05/20 18:53:09;;;;;;;;;;;;;;;;;;5015368;28;19980;-44
2021/05/20 18:55:35;;;;;;;;;;;;;;;;;;5015115;28;19936;-44
2021/05/20 18:58:02;;;;;;;;;;;;;;;;;;5017061;28;19909;-43
2021/05/20 19:00:28;;;;;;;;;;;;;;;;;;5012578;28;19989;-44
2021/05/20 19:02:55;;;;;;;;;;;;;;;;;;5009460;28;20003;-44
2021/05/20 19:05:32;;;;;;;;;;;;;;;;;;5010678;28;19952;-44
2021/05/20 19:10:25;;;;;;;;;;;;;;;;;;5009030;28;20756;-44
2021/05/20 19:12:50;;;;;;;;;;;;;;;;;;4999154;28;19912;-43